createdAt,value
2022-08-05T00:00:52.699Z,100755.7
2022-08-05T00:01:53.199Z,100756.9
2022-08-05T00:02:53.689Z,100756.68
2022-08-05T00:03:53.743Z,100756.89
2022-08-05T00:04:55.300Z,100755.39
2022-08-05T00:06:05.165Z,100756.16
2022-08-05T00:06:57.573Z,100753.69
2022-08-05T00:07:59.862Z,100752.97
2022-08-05T00:08:58.699Z,100755.17
2022-08-05T00:09:59.114Z,100755.44
2022-08-05T00:11:01.465Z,100755.74
2022-08-05T00:12:00.121Z,100752.62
2022-08-05T00:13:00.353Z,100754.6
2022-08-05T00:14:00.980Z,100753.83
2022-08-05T00:15:54.141Z,100755.22
2022-08-05T00:16:04.277Z,100757.53
2022-08-05T00:17:03.840Z,100754.41
2022-08-05T00:18:06.436Z,100752.32
2022-08-05T00:19:06.916Z,100751.63
2022-08-05T00:20:08.206Z,100749.75
2022-08-05T00:21:08.272Z,100746.62
2022-08-05T00:22:08.296Z,100750.8
2022-08-05T00:23:13.144Z,100748.75
2022-08-05T00:24:16.090Z,100754.12
2022-08-05T00:25:13.950Z,100751.13
2022-08-05T00:26:16.396Z,100754.2
2022-08-05T00:27:16.877Z,100752.55
2022-08-05T00:28:15.400Z,100754.42
2022-08-05T00:29:18.994Z,100751.99
2022-08-05T00:30:20.842Z,100750.23
2022-08-05T00:31:53.084Z,100754.92
2022-08-05T00:32:25.776Z,100753.81
2022-08-05T00:34:53.878Z,100750.27
2022-08-05T00:34:56.203Z,100748.45
2022-08-05T00:35:32.984Z,100746.81
2022-08-05T00:37:12.315Z,100749.86
2022-08-05T00:37:50.670Z,100752.8
2022-08-05T00:38:36.266Z,100745.42
2022-08-05T00:39:37.071Z,100746.22
2022-08-05T00:41:51.712Z,100745.11
2022-08-05T00:42:49.184Z,100743.47
2022-08-05T00:43:50.005Z,100746.3
2022-08-05T00:44:48.689Z,100745.31
2022-08-05T00:45:49.927Z,100743.16
2022-08-05T00:46:54.152Z,100743.53
2022-08-05T00:48:04.920Z,100746.54
2022-08-05T00:48:58.667Z,100744.18
2022-08-05T00:49:58.967Z,100747.05
2022-08-05T00:50:59.285Z,100746.84
2022-08-05T00:52:00.114Z,100747.2
2022-08-05T00:53:00.614Z,100745.27
2022-08-05T00:54:03.085Z,100749.7
2022-08-05T00:55:01.050Z,100747.39
2022-08-05T00:56:01.368Z,100747.77
2022-08-05T00:57:01.691Z,100746.03
2022-08-05T00:58:02.597Z,100747.53
2022-08-05T00:59:02.711Z,100747.05
2022-08-05T01:00:06.515Z,100748.45
2022-08-05T01:01:10.436Z,100748.69
2022-08-05T01:02:09.499Z,100748.23
2022-08-05T01:03:22.184Z,100748.61
2022-08-05T01:04:13.807Z,100747.06
2022-08-05T01:05:12.168Z,100746.79
2022-08-05T01:06:15.224Z,100747.26
2022-08-05T01:07:13.611Z,100739.96
2022-08-05T01:08:42.276Z,100739.22
2022-08-05T01:09:17.391Z,100737.79
2022-08-05T01:12:22.274Z,100736.16
2022-08-05T01:15:35.594Z,100737.22
2022-08-05T01:29:55.131Z,100729.02
2022-08-05T01:32:02.334Z,100724.54
2022-08-05T01:32:58.934Z,100724.97
2022-08-05T01:36:03.166Z,100728.41
2022-08-05T01:38:08.592Z,100725.48
2022-08-05T01:39:07.467Z,100725
2022-08-05T01:40:10.213Z,100725.81
2022-08-05T01:41:08.897Z,100721.8
2022-08-05T01:43:21.995Z,100720.46
2022-08-05T01:44:13.249Z,100717.08
2022-08-05T01:45:15.300Z,100714.78
2022-08-05T01:46:16.339Z,100714.38
2022-08-05T01:47:21.561Z,100717.75
2022-08-05T01:48:20.962Z,100716.55
2022-08-05T01:51:29.412Z,100715.12
2022-08-05T01:52:29.723Z,100714.95
2022-08-05T01:53:58.075Z,100716.47
2022-08-05T01:55:36.168Z,100714.2
2022-08-05T01:58:09.772Z,100711.92
2022-08-05T01:58:11.650Z,100712.3
2022-08-05T01:58:44.724Z,100715.59
2022-08-05T01:59:47.075Z,100716.47
2022-08-05T02:00:52.058Z,100709.58
2022-08-05T02:01:54.608Z,100713.14
2022-08-05T02:03:57.649Z,100710.42
2022-08-05T02:04:59.040Z,100710.44
2022-08-05T02:05:57.932Z,100710.36
2022-08-05T02:06:59.470Z,100706.64
2022-08-05T02:08:01.260Z,100708.19
2022-08-05T02:08:59.682Z,100710.11
2022-08-05T02:10:00.635Z,100710.31
2022-08-05T02:11:06.658Z,100708.5
2022-08-05T02:16:25.537Z,100711.7
2022-08-05T02:18:34.370Z,100710.23
2022-08-05T02:19:36.525Z,100709.5
2022-08-05T02:22:42.267Z,100707.2
2022-08-05T02:23:40.226Z,100705.22
2022-08-05T02:24:40.946Z,100702.78
2022-08-05T02:25:50.169Z,100701.44
2022-08-05T02:26:51.911Z,100702.83
2022-08-05T02:27:59.398Z,100702.25
2022-08-05T02:28:49.463Z,100705.17
2022-08-05T02:29:58.921Z,100705.98
2022-08-05T02:31:56.864Z,100703.4
2022-08-05T02:32:58.719Z,100706.73
2022-08-05T02:36:01.548Z,100709.39
2022-08-05T02:37:04.612Z,100708.67
2022-08-05T02:38:02.844Z,100710.41
2022-08-05T02:39:08.634Z,100710.06
2022-08-05T02:40:09.584Z,100712.69
2022-08-05T02:41:17.262Z,100710.95
2022-08-05T02:42:12.306Z,100711.41
2022-08-05T02:43:18.337Z,100713.45
2022-08-05T02:44:16.867Z,100708.39
2022-08-05T02:45:17.837Z,100710.66
2022-08-05T02:46:17.642Z,100709.95
2022-08-05T02:47:21.819Z,100709.22
2022-08-05T02:48:22.285Z,100708.86
2022-08-05T02:49:23.098Z,100710.08
2022-08-05T02:50:24.226Z,100710.11
2022-08-05T02:51:42.378Z,100714.14
2022-08-05T02:52:30.683Z,100710.3
2022-08-05T02:53:39.795Z,100713.98
2022-08-05T02:54:37.011Z,100714.36
2022-08-05T02:55:53.723Z,100710.94
2022-08-05T02:56:38.206Z,100711.61
2022-08-05T02:58:11.186Z,100711.56
2022-08-05T02:58:45.700Z,100706.31
2022-08-05T02:59:52.042Z,100710.19
2022-08-05T03:00:50.923Z,100708.89
2022-08-05T03:01:52.029Z,100708.05
2022-08-05T03:02:51.747Z,100708.99
2022-08-05T03:04:56.473Z,100706.71
2022-08-05T03:06:54.659Z,100705.05
2022-08-05T03:06:59.473Z,100701.92
2022-08-05T03:08:07.097Z,100703.83
2022-08-05T03:09:01.923Z,100706.06
2022-08-05T03:10:02.376Z,100701.88
2022-08-05T03:11:55.382Z,100700.53
2022-08-05T03:12:06.265Z,100702.7
2022-08-05T03:14:13.233Z,100705.8
2022-08-05T03:15:12.434Z,100703
2022-08-05T03:16:11.604Z,100706.98
2022-08-05T03:17:13.341Z,100706.64
2022-08-05T03:18:14.392Z,100707.82
2022-08-05T03:19:29.461Z,100704.42
2022-08-05T03:20:16.865Z,100703.59
2022-08-05T03:21:17.378Z,100704.56
2022-08-05T03:22:22.169Z,100703.95
2022-08-05T03:23:20.347Z,100704.06
2022-08-05T03:24:29.988Z,100702.64
2022-08-05T03:25:33.269Z,100703.47
2022-08-05T03:26:31.980Z,100700.88
2022-08-05T03:27:57.846Z,100704.67
2022-08-05T03:28:33.486Z,100703.59
2022-08-05T03:29:45.240Z,100704.51
2022-08-05T03:30:38.344Z,100703.11
2022-08-05T03:31:55.651Z,100705.64
2022-08-05T03:32:40.167Z,100704.41
2022-08-05T03:33:50.890Z,100704.7
2022-08-05T03:34:51.210Z,100704
2022-08-05T03:35:50.738Z,100705.2
2022-08-05T03:36:50.337Z,100704.8
2022-08-05T03:37:50.356Z,100705.62
2022-08-05T03:38:53.368Z,100702.09
2022-08-05T03:40:01.751Z,100701.16
2022-08-05T03:40:57.674Z,100701.89
2022-08-05T03:41:56.841Z,100703.95
2022-08-05T03:42:57.339Z,100703.77
2022-08-05T03:44:08.598Z,100703.2
2022-08-05T03:44:59.186Z,100701.84
2022-08-05T03:45:59.707Z,100700.29
2022-08-05T03:47:00.017Z,100700.58
2022-08-05T03:48:00.536Z,100701.73
2022-08-05T03:49:01.879Z,100705.88
2022-08-05T03:50:01.275Z,100703.08
2022-08-05T03:57:29.028Z,100711.36
2022-08-05T03:58:21.596Z,100706.69
2022-08-05T03:59:29.055Z,100706.7
2022-08-05T04:00:25.598Z,100708.66
2022-08-05T04:01:26.989Z,100708.62
2022-08-05T04:02:38.976Z,100705.03
2022-08-05T04:03:29.322Z,100708.44
2022-08-05T04:04:31.566Z,100709.79
2022-08-05T04:05:34.012Z,100706.88
2022-08-05T04:06:34.053Z,100709.78
2022-08-05T04:07:34.247Z,100710.01
2022-08-05T04:08:37.650Z,100709.02
2022-08-05T04:09:37.654Z,100709.19
2022-08-05T04:10:38.479Z,100713.52
2022-08-05T04:11:47.645Z,100710.28
2022-08-05T04:13:49.712Z,100713.3
2022-08-05T04:14:44.756Z,100712.05
2022-08-05T04:16:02.839Z,100710.47
2022-08-05T04:16:45.963Z,100712.14
2022-08-05T04:17:57.104Z,100710.02
2022-08-05T04:18:54.323Z,100713.58
2022-08-05T04:19:54.424Z,100711.53
2022-08-05T04:20:57.779Z,100717.77
2022-08-05T04:22:08.433Z,100717.41
2022-08-05T04:22:58.925Z,100717.74
2022-08-05T04:24:06.430Z,100720.7
2022-08-05T04:24:59.448Z,100721.09
2022-08-05T04:26:01.122Z,100719.88
2022-08-05T04:27:00.387Z,100717.86
2022-08-05T04:28:05.758Z,100719.7
2022-08-05T04:29:07.203Z,100719.72
2022-08-05T04:30:06.445Z,100722.11
2022-08-05T04:31:08.383Z,100722.12
2022-08-05T04:32:09.436Z,100721.7
2022-08-05T04:33:08.515Z,100721.77
2022-08-05T04:34:31.283Z,100722.14
2022-08-05T04:35:17.575Z,100719.3
2022-08-05T04:36:44.794Z,100716.98
2022-08-05T04:37:15.095Z,100717.12
2022-08-05T04:38:15.628Z,100716.95
2022-08-05T04:39:15.870Z,100716.84
2022-08-05T04:40:19.476Z,100716.7
2022-08-05T04:41:17.265Z,100718.23
2022-08-05T04:42:17.591Z,100716.41
2022-08-05T04:43:22.825Z,100717.7
2022-08-05T04:44:29.495Z,100721.14
2022-08-05T04:45:48.532Z,100717.84
2022-08-05T04:46:30.508Z,100717.75
2022-08-05T04:47:30.725Z,100719.74
2022-08-05T04:48:31.355Z,100716.84
2022-08-05T04:49:38.807Z,100719.27
2022-08-05T04:51:35.775Z,100718.97
2022-08-05T04:52:36.303Z,100718.28
2022-08-05T04:53:38.912Z,100717.02
2022-08-05T04:54:37.017Z,100722.19
2022-08-05T04:56:14.947Z,100722.9
2022-08-05T04:56:40.916Z,100722.86
2022-08-05T04:57:47.527Z,100723.86
2022-08-05T04:58:45.545Z,100723.54
2022-08-05T04:59:48.129Z,100716.16
2022-08-05T05:00:46.614Z,100718.58
2022-08-05T05:02:07.351Z,100718.84
2022-08-05T05:02:51.948Z,100714.12
2022-08-05T05:03:52.247Z,100715.19
2022-08-05T05:04:52.743Z,100717.09
2022-08-05T05:06:40.040Z,100718.59
2022-08-05T05:06:58.084Z,100714.33
2022-08-05T05:09:01.178Z,100716.95
2022-08-05T05:10:04.046Z,100718.12
2022-08-05T05:11:03.647Z,100724.95
2022-08-05T05:12:04.467Z,100717.41
2022-08-05T05:13:04.694Z,100716.62
2022-08-05T05:14:04.791Z,100717.22
2022-08-05T05:15:10.932Z,100720.31
2022-08-05T05:16:08.698Z,100718.62
2022-08-05T05:17:09.437Z,100720.11
2022-08-05T05:18:10.136Z,100719.87
2022-08-05T05:19:19.308Z,100719.59
2022-08-05T05:20:12.889Z,100724.1
2022-08-05T05:21:11.587Z,100723.17
2022-08-05T05:22:23.943Z,100724.66
2022-08-05T05:23:19.826Z,100717.94
2022-08-05T05:24:17.884Z,100719.95
2022-08-05T05:25:18.275Z,100721.73
2022-08-05T05:26:18.922Z,100722.78
2022-08-05T05:27:19.413Z,100722.85
2022-08-05T05:28:19.739Z,100725.55
2022-08-05T05:29:20.245Z,100724.66
2022-08-05T05:30:29.213Z,100721.7
2022-08-05T05:31:23.746Z,100725.59
2022-08-05T05:32:24.269Z,100726.77
2022-08-05T05:33:24.773Z,100724.11
2022-08-05T05:34:26.905Z,100724.75
2022-08-05T05:35:26.021Z,100722.38
2022-08-05T05:36:28.691Z,100720.54
2022-08-05T05:37:29.295Z,100719.66
2022-08-05T05:38:29.838Z,100721.65
2022-08-05T05:39:31.689Z,100722.33
2022-08-05T05:40:33.311Z,100722.95
2022-08-05T05:41:40.187Z,100723.26
2022-08-05T05:42:33.536Z,100722.59
2022-08-05T05:43:58.587Z,100723.89
2022-08-05T05:44:37.487Z,100727.38
2022-08-05T05:45:48.111Z,100725.98
2022-08-05T05:46:40.936Z,100722.27
2022-08-05T05:48:06.333Z,100725.1
2022-08-05T05:48:44.609Z,100725.05
2022-08-05T05:49:44.347Z,100723.09
2022-08-05T05:50:45.167Z,100725.38
2022-08-05T05:51:50.643Z,100723.31
2022-08-05T05:52:48.777Z,100723.3
2022-08-05T05:53:57.657Z,100724.98
2022-08-05T05:54:51.557Z,100725.94
2022-08-05T05:56:00.709Z,100722.2
2022-08-05T05:56:55.852Z,100718.27
2022-08-05T05:57:55.965Z,100720.34
2022-08-05T05:59:03.079Z,100716.05
2022-08-05T06:00:01.197Z,100719.11
2022-08-05T06:01:04.881Z,100720.02
2022-08-05T06:02:05.845Z,100720.38
2022-08-05T06:03:05.947Z,100721.44
2022-08-05T06:05:16.607Z,100724.55
2022-08-05T06:06:14.546Z,100722.6
2022-08-05T06:07:14.995Z,100725.17
2022-08-05T06:08:15.275Z,100724.2
2022-08-05T06:09:25.750Z,100728.03
2022-08-05T06:10:24.404Z,100723.14
2022-08-05T06:11:29.003Z,100726.11
2022-08-05T06:12:27.616Z,100726.17
2022-08-05T06:13:27.801Z,100727.97
2022-08-05T06:14:28.884Z,100724.35
2022-08-05T06:16:27.598Z,100722.52
2022-08-05T06:16:32.836Z,100723.06
2022-08-05T06:17:52.829Z,100718.73
2022-08-05T06:18:36.864Z,100719.81
2022-08-05T06:19:37.585Z,100721.5
2022-08-05T06:20:37.469Z,100719.36
2022-08-05T06:21:38.664Z,100720.25
2022-08-05T06:22:40.474Z,100723.7
2022-08-05T06:26:21.212Z,100723.23
2022-08-05T06:27:17.345Z,100723.35
2022-08-05T06:28:21.053Z,100723.16
2022-08-05T06:29:23.684Z,100721.35
2022-08-05T06:30:22.189Z,100724.29
2022-08-05T06:31:22.806Z,100723.25
2022-08-05T06:32:28.964Z,100724.9
2022-08-05T06:34:00.507Z,100724.25
2022-08-05T06:34:29.272Z,100724.81
2022-08-05T06:36:09.261Z,100725.08
2022-08-05T06:36:53.522Z,100726.73
2022-08-05T06:37:56.586Z,100728.17
2022-08-05T06:38:37.163Z,100726.25
2022-08-05T06:39:36.443Z,100728.77
2022-08-05T06:40:36.798Z,100727.12
2022-08-05T06:41:41.262Z,100726.81
2022-08-05T06:42:40.386Z,100727.34
2022-08-05T06:43:57.835Z,100721.05
2022-08-05T06:44:42.666Z,100722.77
2022-08-05T06:46:06.855Z,100723.91
2022-08-05T06:46:51.114Z,100722.19
2022-08-05T06:48:36.809Z,100722.03
2022-08-05T06:48:56.187Z,100723.69
2022-08-05T06:50:01.495Z,100721.86
2022-08-05T06:50:52.930Z,100717.66
2022-08-05T06:51:53.549Z,100713.34
2022-08-05T06:52:58.711Z,100711.88
2022-08-05T06:54:01.999Z,100717.59
2022-08-05T06:54:59.713Z,100711.79
2022-08-05T06:56:01.579Z,100714.34
2022-08-05T06:57:56.845Z,100713.28
2022-08-05T06:58:20.086Z,100715.88
2022-08-05T06:59:09.453Z,100716.66
2022-08-05T07:00:10.377Z,100717.12
2022-08-05T07:01:10.064Z,100714.75
2022-08-05T07:02:10.832Z,100716.72
2022-08-05T07:03:11.350Z,100717.89
2022-08-05T07:04:13.952Z,100711.48
2022-08-05T07:05:18.508Z,100713.81
2022-08-05T07:06:17.093Z,100712.81
2022-08-05T07:07:24.079Z,100711.41
2022-08-05T07:08:20.694Z,100714.34
2022-08-05T07:09:24.870Z,100712.48
2022-08-05T07:10:23.162Z,100713.41
2022-08-05T07:11:25.421Z,100707.91
2022-08-05T07:12:25.332Z,100714.8
2022-08-05T07:13:52.478Z,100712.67
2022-08-05T07:14:29.455Z,100714.62
2022-08-05T07:15:34.495Z,100709.5
2022-08-05T07:17:57.346Z,100710.25
2022-08-05T07:17:59.724Z,100707.34
2022-08-05T07:18:35.815Z,100708.53
2022-08-05T07:20:39.821Z,100712.8
2022-08-05T07:22:00.643Z,100709.4
2022-08-05T07:22:41.903Z,100707.62
2022-08-05T07:23:49.890Z,100712
2022-08-05T07:24:52.445Z,100707.59
2022-08-05T07:25:55.297Z,100710.31
2022-08-05T07:26:48.860Z,100709.48
2022-08-05T07:27:57.086Z,100711.73
2022-08-05T07:28:51.261Z,100708.52
2022-08-05T07:30:28.132Z,100713.12
2022-08-05T07:30:55.103Z,100709.73
2022-08-05T07:31:55.350Z,100711.31
2022-08-05T07:32:54.916Z,100705.27
2022-08-05T07:33:54.755Z,100706.56
2022-08-05T07:34:57.958Z,100704.34
2022-08-05T07:36:19.631Z,100703.86
2022-08-05T07:36:59.891Z,100705.86
2022-08-05T07:38:00.216Z,100706.66
2022-08-05T07:39:02.130Z,100704.59
2022-08-05T07:40:32.081Z,100704.91
2022-08-05T07:42:06.975Z,100704.55
2022-08-05T07:42:14.163Z,100704.81
2022-08-05T07:43:20.084Z,100702.77
2022-08-05T07:44:19.210Z,100703.59
2022-08-05T07:45:16.913Z,100701.66
2022-08-05T07:46:24.432Z,100702.86
2022-08-05T07:47:25.821Z,100702.59
2022-08-05T07:49:03.026Z,100707.83
2022-08-05T07:49:26.091Z,100703.94
2022-08-05T07:50:32.451Z,100705.83
2022-08-05T07:51:37.018Z,100708.41
2022-08-05T07:53:50.507Z,100707.13
2022-08-05T07:54:49.161Z,100706.16
2022-08-05T07:56:06.412Z,100704.27
2022-08-05T07:57:01.662Z,100702.62
2022-08-05T07:58:02.404Z,100706.49
2022-08-05T07:58:58.758Z,100703.48
2022-08-05T07:59:56.662Z,100706.03
2022-08-05T08:00:57.126Z,100701.77
2022-08-05T08:01:57.935Z,100702.62
2022-08-05T08:03:13.559Z,100700.52
2022-08-05T08:03:58.235Z,100700.77
2022-08-05T08:04:58.846Z,100704.17
2022-08-05T08:05:58.747Z,100702.35
2022-08-05T08:06:59.175Z,100705.28
2022-08-05T08:08:00.714Z,100700.95
2022-08-05T08:08:59.819Z,100702.81
2022-08-05T08:10:00.172Z,100700.52
2022-08-05T08:11:00.592Z,100695.48
2022-08-05T08:12:09.343Z,100699.55
2022-08-05T08:13:04.222Z,100699.65
2022-08-05T08:14:04.538Z,100700.84
2022-08-05T08:15:09.696Z,100699.19
2022-08-05T08:16:49.935Z,100695.73
2022-08-05T08:17:10.309Z,100698.38
2022-08-05T08:18:14.221Z,100699.75
2022-08-05T08:19:18.723Z,100702.62
2022-08-05T08:20:42.834Z,100699.53
2022-08-05T08:21:19.117Z,100692.36
2022-08-05T08:22:18.652Z,100697.2
2022-08-05T08:24:03.014Z,100693.05
2022-08-05T08:24:21.084Z,100693.67
2022-08-05T08:25:26.959Z,100696.01
2022-08-05T08:26:29.364Z,100694.9
2022-08-05T08:27:40.146Z,100692
2022-08-05T08:28:37.085Z,100691.03
2022-08-05T08:30:03.528Z,100688.95
2022-08-05T08:30:47.371Z,100687.47
2022-08-05T08:31:40.485Z,100687.24
2022-08-05T08:32:41.763Z,100684.34
2022-08-05T08:33:41.325Z,100681.9
2022-08-05T08:34:41.527Z,100685.9
2022-08-05T08:35:53.870Z,100685.89
2022-08-05T08:36:47.657Z,100679.64
2022-08-05T08:37:47.285Z,100681.47
2022-08-05T08:38:53.241Z,100681.18
2022-08-05T08:39:51.543Z,100682.89
2022-08-05T08:40:51.922Z,100684.88
2022-08-05T08:41:59.946Z,100682.58
2022-08-05T08:42:54.726Z,100682.34
2022-08-05T08:45:18.597Z,100684.57
2022-08-05T08:45:19.346Z,100688.2
2022-08-05T08:46:03.321Z,100685.61
2022-08-05T08:47:21.693Z,100684.45
2022-08-05T08:48:22.264Z,100682.72
2022-08-05T08:50:07.663Z,100681.48
2022-08-05T08:50:31.660Z,100680.28
2022-08-05T08:52:02.270Z,100680.4
2022-08-05T08:52:23.139Z,100681.18
2022-08-05T08:53:18.524Z,100679.16
2022-08-05T08:54:17.405Z,100683.23
2022-08-05T08:55:19.557Z,100683.25
2022-08-05T08:56:20.278Z,100686.66
2022-08-05T08:57:20.285Z,100684.77
2022-08-05T08:58:20.804Z,100683.67
2022-08-05T08:59:27.735Z,100678.69
2022-08-05T09:00:27.356Z,100675.56
2022-08-05T09:01:26.896Z,100680.5
2022-08-05T09:02:27.684Z,100675.2
2022-08-05T09:03:28.312Z,100670.34
2022-08-05T09:04:30.394Z,100674.81
2022-08-05T09:05:38.931Z,100672.83
2022-08-05T09:06:31.674Z,100675.55
2022-08-05T09:07:39.803Z,100674.84
2022-08-05T09:08:33.564Z,100677.39
2022-08-05T09:09:35.802Z,100676.14
2022-08-05T09:10:35.742Z,100676.2
2022-08-05T09:11:52.204Z,100675.09
2022-08-05T09:12:37.892Z,100675.44
2022-08-05T09:14:09.069Z,100679.02
2022-08-05T09:14:57.193Z,100667.7
2022-08-05T09:15:41.914Z,100672.2
2022-08-05T09:16:42.209Z,100671.77
2022-08-05T09:17:49.635Z,100669.25
2022-08-05T09:18:47.562Z,100668.79
2022-08-05T09:19:55.076Z,100667.8
2022-08-05T09:20:47.974Z,100670.45
2022-08-05T09:22:23.393Z,100664.22
2022-08-05T09:24:59.704Z,100668.29
2022-08-05T09:27:01.121Z,100671.39
2022-08-05T09:29:05.544Z,100663.97
2022-08-05T09:30:07.833Z,100664.06
2022-08-05T09:31:43.748Z,100659.95
2022-08-05T09:32:42.168Z,100661.56
2022-08-05T09:33:15.269Z,100664.82
2022-08-05T09:34:14.814Z,100661.47
2022-08-05T09:35:26.705Z,100662.42
2022-08-05T09:36:16.504Z,100662.53
2022-08-05T09:38:13.075Z,100663.73
2022-08-05T09:38:18.671Z,100666.46
2022-08-05T09:39:21.997Z,100657.62
2022-08-05T09:41:23.742Z,100653.52
2022-08-05T09:42:28.150Z,100657.13
2022-08-05T09:43:40.977Z,100656.8
2022-08-05T09:46:07.278Z,100649.09
2022-08-05T09:46:35.049Z,100651.27
2022-08-05T09:47:55.431Z,100651.77
2022-08-05T09:48:37.917Z,100651.3
2022-08-05T09:50:44.850Z,100646.33
2022-08-05T09:51:42.749Z,100648.2
2022-08-05T09:52:45.058Z,100648.14
2022-08-05T09:56:52.536Z,100643.75
2022-08-05T09:57:54.564Z,100639.42
2022-08-05T09:58:57.653Z,100639.18
2022-08-05T10:00:03.628Z,100639.45
2022-08-05T10:01:02.066Z,100635.34
2022-08-05T10:02:01.290Z,100632.39
2022-08-05T10:03:09.717Z,100640.62
2022-08-05T10:04:10.680Z,100632.7
2022-08-05T10:05:05.980Z,100636.14
2022-08-05T10:06:14.869Z,100625.78
2022-08-05T10:07:31.819Z,100626.41
2022-08-05T10:08:37.596Z,100628.77
2022-08-05T10:10:16.465Z,100628.75
2022-08-05T10:11:17.077Z,100627.09
2022-08-05T10:12:30.969Z,100627.88
2022-08-05T10:14:28.265Z,100630.86
2022-08-05T10:15:27.652Z,100632.83
2022-08-05T10:16:30.856Z,100629.17
2022-08-05T10:17:37.874Z,100637.64
2022-08-05T10:18:33.405Z,100634.36
2022-08-05T10:20:03.754Z,100636.52
2022-08-05T10:21:40.102Z,100637.34
2022-08-05T10:22:43.139Z,100633.16
2022-08-05T10:23:55.844Z,100628.72
2022-08-05T10:24:46.975Z,100628.58
2022-08-05T10:25:48.611Z,100628.61
2022-08-05T10:26:52.341Z,100624.06
2022-08-05T10:28:12.887Z,100627.7
2022-08-05T10:28:53.064Z,100626.48
2022-08-05T10:31:20.356Z,100623.12
2022-08-05T10:32:50.784Z,100621.27
2022-08-05T10:32:53.355Z,100621.2
2022-08-05T10:33:03.339Z,100621.6
2022-08-05T10:34:01.973Z,100623.85
2022-08-05T10:35:02.394Z,100621.69
2022-08-05T10:36:03.948Z,100621.69
2022-08-05T10:37:02.913Z,100618.78
2022-08-05T10:38:04.463Z,100615.66
2022-08-05T10:42:18.812Z,100613.36
2022-08-05T10:44:20.381Z,100606
2022-08-05T10:46:23.833Z,100604.23
2022-08-05T10:47:31.173Z,100604.05
2022-08-05T10:49:32.882Z,100604.2
2022-08-05T10:50:36.237Z,100604.14
2022-08-05T10:52:46.988Z,100603.08
2022-08-05T10:56:55.581Z,100596.06
2022-08-05T10:59:12.807Z,100599.36
2022-08-05T11:01:06.872Z,100601.12
2022-08-05T11:02:38.055Z,100598.91
2022-08-05T11:03:25.508Z,100595.31
2022-08-05T11:05:13.949Z,100595.94
2022-08-05T11:06:17.668Z,100594.27
2022-08-05T11:07:16.626Z,100599.12
2022-08-05T11:08:36.707Z,100588.91
2022-08-05T11:15:00.956Z,100589.25
2022-08-05T11:16:00.120Z,100586.41
2022-08-05T11:16:56.116Z,100586.59
2022-08-05T11:18:00.053Z,100585.27
2022-08-05T11:18:47.122Z,100586.63
2022-08-05T11:20:17.545Z,100585
2022-08-05T11:20:49.585Z,100585.77
2022-08-05T11:21:49.778Z,100587.12
2022-08-05T11:22:53.948Z,100583.16
2022-08-05T11:24:04.819Z,100582.47
2022-08-05T11:29:12.984Z,100575.62
2022-08-05T11:30:11.444Z,100578.09
2022-08-05T11:34:18.050Z,100581.01
2022-08-05T11:42:47.163Z,100565.07
2022-08-05T11:44:54.027Z,100571.54
2022-08-05T11:46:14.914Z,100573.25
2022-08-05T11:46:58.365Z,100568.62
2022-08-05T11:47:58.640Z,100567.16
2022-08-05T11:48:59.598Z,100565.88
2022-08-05T11:49:59.089Z,100564.86
2022-08-05T11:50:58.790Z,100564.3
2022-08-05T11:51:59.818Z,100561.46
2022-08-05T11:53:06.319Z,100556.86
2022-08-05T11:54:03.008Z,100560.53
2022-08-05T11:55:07.140Z,100563.44
2022-08-05T11:56:05.886Z,100559.23
2022-08-05T11:57:24.966Z,100557.09
2022-08-05T11:58:24.746Z,100559.19
2022-08-05T11:59:21.475Z,100556.54
2022-08-05T12:00:31.694Z,100558.05
2022-08-05T12:01:21.791Z,100557.3
2022-08-05T12:02:31.467Z,100555.61
2022-08-05T12:03:29.556Z,100556.77
2022-08-05T12:04:25.804Z,100549.3
2022-08-05T12:05:36.164Z,100545.39
2022-08-05T12:06:27.875Z,100545.92
2022-08-05T12:08:03.577Z,100546.61
2022-08-05T12:08:32.882Z,100544.26
2022-08-05T12:09:53.026Z,100545.78
2022-08-05T12:10:45.612Z,100547.72
2022-08-05T12:11:39.740Z,100549.46
2022-08-05T12:12:39.386Z,100548.19
2022-08-05T12:13:48.920Z,100548.67
2022-08-05T12:14:43.485Z,100543.52
2022-08-05T12:15:49.788Z,100544.9
2022-08-05T12:16:48.322Z,100546.17
2022-08-05T12:18:04.033Z,100547.48
2022-08-05T12:18:53.055Z,100544.64
2022-08-05T12:20:52.948Z,100545.19
2022-08-05T12:21:53.362Z,100547.53
2022-08-05T12:24:00.119Z,100548.61
2022-08-05T12:24:57.074Z,100544.17
2022-08-05T12:25:57.685Z,100542.64
2022-08-05T12:26:57.908Z,100545.81
2022-08-05T12:27:58.327Z,100541.82
2022-08-05T12:29:01.475Z,100544.82
2022-08-05T12:30:03.543Z,100545.26
2022-08-05T12:31:02.631Z,100541.07
2022-08-05T12:32:02.440Z,100538.59
2022-08-05T12:33:07.415Z,100541.97
2022-08-05T12:34:07.469Z,100539.29
2022-08-05T12:35:06.348Z,100537.09
2022-08-05T12:36:08.844Z,100542.95
2022-08-05T12:37:09.023Z,100539.3
2022-08-05T12:38:06.980Z,100534.38
2022-08-05T12:39:08.113Z,100531.88
2022-08-05T12:40:10.405Z,100535.36
2022-08-05T12:42:14.304Z,100530.13
2022-08-05T12:43:12.535Z,100528.28
2022-08-05T12:44:28.418Z,100526.91
2022-08-05T12:45:15.953Z,100526.3
2022-08-05T12:48:32.725Z,100526.33
2022-08-05T12:49:25.732Z,100528.55
2022-08-05T12:50:27.964Z,100529.92
2022-08-05T12:52:13.013Z,100525.01
2022-08-05T12:52:38.724Z,100524.52
2022-08-05T12:53:37.071Z,100524.32
2022-08-05T12:54:36.671Z,100522.56
2022-08-05T12:55:36.792Z,100522.87
2022-08-05T12:56:42.523Z,100520.42
2022-08-05T12:58:38.569Z,100519.5
2022-08-05T12:58:52.303Z,100521.11
2022-08-05T13:01:57.782Z,100524.8
2022-08-05T13:02:01.518Z,100519.95
2022-08-05T13:02:55.525Z,100519.48
2022-08-05T13:03:55.585Z,100519.98
2022-08-05T13:04:55.699Z,100520.12
2022-08-05T13:05:56.419Z,100516.59
2022-08-05T13:08:00.869Z,100517.95
2022-08-05T13:11:08.158Z,100520.13
2022-08-05T13:13:11.319Z,100512.8
2022-08-05T13:15:18.151Z,100513.94
2022-08-05T13:16:17.235Z,100510.06
2022-08-05T13:18:20.548Z,100509.85
2022-08-05T13:19:22.309Z,100512.4
2022-08-05T13:20:24.638Z,100506.8
2022-08-05T13:21:23.757Z,100508.88
2022-08-05T13:22:28.325Z,100511.03
2022-08-05T13:23:27.563Z,100508.41
2022-08-05T13:24:50.987Z,100507.78
2022-08-05T13:25:52.017Z,100504.75
2022-08-05T13:26:33.515Z,100502.23
2022-08-05T13:27:37.982Z,100505.2
2022-08-05T13:28:36.393Z,100500.7
2022-08-05T13:30:35.313Z,100505.56
2022-08-05T13:30:44.086Z,100505.05
2022-08-05T13:32:04.131Z,100505.34
2022-08-05T13:32:50.510Z,100499.6
2022-08-05T13:34:23.559Z,100503.44
2022-08-05T13:34:51.076Z,100503.2
2022-08-05T13:35:51.963Z,100503.69
2022-08-05T13:36:51.615Z,100499.62
2022-08-05T13:37:55.782Z,100501.62
2022-08-05T13:38:53.639Z,100496.86
2022-08-05T13:40:16.782Z,100494.73
2022-08-05T13:40:56.182Z,100494.64
2022-08-05T13:41:56.443Z,100494.61